sensor_id;sensor_type;location;lat;lon;timestamp;temperature;humidity
20446;DHT22;10382;49.140;9.234;2022-08-04T00:02:02;25.10;99.90
20446;DHT22;10382;49.140;9.234;2022-08-04T00:04:34;25.10;99.90
20446;DHT22;10382;49.140;9.234;2022-08-04T00:07:08;25.00;99.90
20446;DHT22;10382;49.140;9.234;2022-08-04T00:09:43;24.90;99.90
20446;DHT22;10382;49.140;9.234;2022-08-04T00:12:11;24.90;99.90
20446;DHT22;10382;49.140;9.234;2022-08-04T00:14:46;24.90;99.90
20446;DHT22;10382;49.140;9.234;2022-08-04T00:17:14;24.80;99.90
20446;DHT22;10382;49.140;9.234;2022-08-04T00:19:47;24.70;99.90
20446;DHT22;10382;49.140;9.234;2022-08-04T00:22:18;24.60;99.90
20446;DHT22;10382;49.140;9.234;2022-08-04T00:24:47;24.60;99.90
20446;DHT22;10382;49.140;9.234;2022-08-04T00:27:14;24.60;99.90
20446;DHT22;10382;49.140;9.234;2022-08-04T00:29:42;24.50;99.90
20446;DHT22;10382;49.140;9.234;2022-08-04T00:32:11;24.50;99.90
20446;DHT22;10382;49.140;9.234;2022-08-04T00:34:38;24.50;99.90
20446;DHT22;10382;49.140;9.234;2022-08-04T00:37:06;24.40;99.90
20446;DHT22;10382;49.140;9.234;2022-08-04T00:39:33;24.40;99.90
20446;DHT22;10382;49.140;9.234;2022-08-04T00:42:33;24.30;99.90
20446;DHT22;10382;49.140;9.234;2022-08-04T00:48:25;24.30;99.90
20446;DHT22;10382;49.140;9.234;2022-08-04T00:51:01;24.30;99.90
20446;DHT22;10382;49.140;9.234;2022-08-04T00:53:49;24.30;99.90
20446;DHT22;10382;49.140;9.234;2022-08-04T00:56:41;24.30;99.90
20446;DHT22;10382;49.140;9.234;2022-08-04T00:59:19;24.20;99.90
20446;DHT22;10382;49.140;9.234;2022-08-04T01:01:57;24.20;99.90
20446;DHT22;10382;49.140;9.234;2022-08-04T01:04:48;24.10;99.90
20446;DHT22;10382;49.140;9.234;2022-08-04T01:10:39;24.00;99.90
20446;DHT22;10382;49.140;9.234;2022-08-04T01:13:25;24.00;99.90
20446;DHT22;10382;49.140;9.234;2022-08-04T01:16:02;24.00;99.90
20446;DHT22;10382;49.140;9.234;2022-08-04T01:18:42;24.00;99.90
20446;DHT22;10382;49.140;9.234;2022-08-04T01:21:37;24.00;99.90
20446;DHT22;10382;49.140;9.234;2022-08-04T01:24:23;24.00;99.90
20446;DHT22;10382;49.140;9.234;2022-08-04T01:26:58;24.10;99.90
20446;DHT22;10382;49.140;9.234;2022-08-04T01:29:30;24.10;99.90
20446;DHT22;10382;49.140;9.234;2022-08-04T01:32:01;24.10;99.90
20446;DHT22;10382;49.140;9.234;2022-08-04T01:34:32;24.10;99.90
20446;DHT22;10382;49.140;9.234;2022-08-04T01:37:09;24.10;99.90
20446;DHT22;10382;49.140;9.234;2022-08-04T01:39:43;24.10;99.90
20446;DHT22;10382;49.140;9.234;2022-08-04T01:42:17;24.10;99.90
20446;DHT22;10382;49.140;9.234;2022-08-04T01:44:47;24.10;99.90
20446;DHT22;10382;49.140;9.234;2022-08-04T01:47:19;24.00;99.90
20446;DHT22;10382;49.140;9.234;2022-08-04T01:49:49;23.90;99.90
20446;DHT22;10382;49.140;9.234;2022-08-04T01:52:18;23.90;99.90
20446;DHT22;10382;49.140;9.234;2022-08-04T01:54:47;23.80;99.90
20446;DHT22;10382;49.140;9.234;2022-08-04T01:57:16;23.80;99.90
20446;DHT22;10382;49.140;9.234;2022-08-04T01:59:46;23.80;99.90
20446;DHT22;10382;49.140;9.234;2022-08-04T02:02:15;23.70;99.90
20446;DHT22;10382;49.140;9.234;2022-08-04T02:04:42;23.70;99.90
20446;DHT22;10382;49.140;9.234;2022-08-04T02:07:29;23.70;99.90
20446;DHT22;10382;49.140;9.234;2022-08-04T02:10:04;23.60;99.90
20446;DHT22;10382;49.140;9.234;2022-08-04T02:12:43;23.40;99.90
20446;DHT22;10382;49.140;9.234;2022-08-04T02:15:22;23.30;99.90
20446;DHT22;10382;49.140;9.234;2022-08-04T02:18:04;23.30;99.90
20446;DHT22;10382;49.140;9.234;2022-08-04T02:20:37;23.20;99.90
20446;DHT22;10382;49.140;9.234;2022-08-04T02:23:06;23.10;99.90
20446;DHT22;10382;49.140;9.234;2022-08-04T02:25:39;23.10;99.90
20446;DHT22;10382;49.140;9.234;2022-08-04T02:28:21;23.10;99.90
20446;DHT22;10382;49.140;9.234;2022-08-04T02:31:02;23.10;99.90
20446;DHT22;10382;49.140;9.234;2022-08-04T02:33:35;23.20;99.90
20446;DHT22;10382;49.140;9.234;2022-08-04T02:36:04;23.20;99.90
20446;DHT22;10382;49.140;9.234;2022-08-04T02:38:46;23.20;99.90
20446;DHT22;10382;49.140;9.234;2022-08-04T02:41:21;23.30;99.90
20446;DHT22;10382;49.140;9.234;2022-08-04T02:43:49;23.30;99.90
20446;DHT22;10382;49.140;9.234;2022-08-04T02:46:18;23.30;99.90
20446;DHT22;10382;49.140;9.234;2022-08-04T02:48:47;23.20;99.90
20446;DHT22;10382;49.140;9.234;2022-08-04T02:51:16;23.10;99.90
20446;DHT22;10382;49.140;9.234;2022-08-04T02:53:46;23.00;99.90
20446;DHT22;10382;49.140;9.234;2022-08-04T02:56:18;23.00;99.90
20446;DHT22;10382;49.140;9.234;2022-08-04T02:58:47;22.90;99.90
20446;DHT22;10382;49.140;9.234;2022-08-04T03:01:16;22.80;99.90
20446;DHT22;10382;49.140;9.234;2022-08-04T03:03:49;22.80;99.90
20446;DHT22;10382;49.140;9.234;2022-08-04T03:06:43;22.80;99.90
20446;DHT22;10382;49.140;9.234;2022-08-04T03:09:45;22.80;99.90
20446;DHT22;10382;49.140;9.234;2022-08-04T03:12:46;22.80;99.90
20446;DHT22;10382;49.140;9.234;2022-08-04T03:15:47;22.80;99.90
20446;DHT22;10382;49.140;9.234;2022-08-04T03:21:33;22.90;99.90
20446;DHT22;10382;49.140;9.234;2022-08-04T03:24:20;22.80;99.90
20446;DHT22;10382;49.140;9.234;2022-08-04T03:27:15;22.70;99.90
20446;DHT22;10382;49.140;9.234;2022-08-04T03:30:02;22.70;99.90
20446;DHT22;10382;49.140;9.234;2022-08-04T03:38:54;22.70;99.90
20446;DHT22;10382;49.140;9.234;2022-08-04T03:41:45;22.50;99.90
20446;DHT22;10382;49.140;9.234;2022-08-04T03:44:35;22.40;99.90
20446;DHT22;10382;49.140;9.234;2022-08-04T03:47:27;22.20;99.90
20446;DHT22;10382;49.140;9.234;2022-08-04T03:53:35;22.10;99.90
20446;DHT22;10382;49.140;9.234;2022-08-04T03:59:22;22.30;99.90
20446;DHT22;10382;49.140;9.234;2022-08-04T04:08:39;22.50;99.90
20446;DHT22;10382;49.140;9.234;2022-08-04T04:11:30;22.40;99.90
20446;DHT22;10382;49.140;9.234;2022-08-04T04:14:16;22.30;99.90
20446;DHT22;10382;49.140;9.234;2022-08-04T04:16:56;22.30;99.90
20446;DHT22;10382;49.140;9.234;2022-08-04T04:19:50;22.30;99.90
20446;DHT22;10382;49.140;9.234;2022-08-04T04:22:37;22.40;99.90
20446;DHT22;10382;49.140;9.234;2022-08-04T04:25:18;22.60;99.90
20446;DHT22;10382;49.140;9.234;2022-08-04T04:30:44;22.70;99.90
20446;DHT22;10382;49.140;9.234;2022-08-04T04:33:30;22.80;99.90
20446;DHT22;10382;49.140;9.234;2022-08-04T04:36:10;22.80;99.90
20446;DHT22;10382;49.140;9.234;2022-08-04T04:38:49;22.80;99.90
20446;DHT22;10382;49.140;9.234;2022-08-04T04:41:41;22.80;99.90
20446;DHT22;10382;49.140;9.234;2022-08-04T04:44:45;22.80;99.90
20446;DHT22;10382;49.140;9.234;2022-08-04T04:47:21;22.90;99.90
20446;DHT22;10382;49.140;9.234;2022-08-04T04:49:56;22.90;99.90
20446;DHT22;10382;49.140;9.234;2022-08-04T04:52:29;22.90;99.90
20446;DHT22;10382;49.140;9.234;2022-08-04T04:55:09;22.90;99.90
20446;DHT22;10382;49.140;9.234;2022-08-04T04:57:40;22.90;99.90
20446;DHT22;10382;49.140;9.234;2022-08-04T05:00:09;22.90;99.90
20446;DHT22;10382;49.140;9.234;2022-08-04T05:03:04;22.90;99.90
20446;DHT22;10382;49.140;9.234;2022-08-04T05:05:42;22.90;99.90
20446;DHT22;10382;49.140;9.234;2022-08-04T05:11:26;23.20;99.90
20446;DHT22;10382;49.140;9.234;2022-08-04T05:14:00;23.50;99.90
20446;DHT22;10382;49.140;9.234;2022-08-04T05:16:32;23.60;99.90
20446;DHT22;10382;49.140;9.234;2022-08-04T05:19:10;23.80;99.90
20446;DHT22;10382;49.140;9.234;2022-08-04T05:21:47;24.00;99.90
20446;DHT22;10382;49.140;9.234;2022-08-04T05:24:17;24.10;99.90
20446;DHT22;10382;49.140;9.234;2022-08-04T05:26:49;24.20;99.90
20446;DHT22;10382;49.140;9.234;2022-08-04T05:29:31;24.30;99.90
20446;DHT22;10382;49.140;9.234;2022-08-04T05:32:02;24.30;99.90
20446;DHT22;10382;49.140;9.234;2022-08-04T05:34:38;24.40;99.90
20446;DHT22;10382;49.140;9.234;2022-08-04T05:37:09;24.50;99.90
20446;DHT22;10382;49.140;9.234;2022-08-04T05:39:42;24.70;99.90
20446;DHT22;10382;49.140;9.234;2022-08-04T05:42:10;24.90;99.90
20446;DHT22;10382;49.140;9.234;2022-08-04T05:44:40;25.10;99.90
20446;DHT22;10382;49.140;9.234;2022-08-04T05:47:10;25.20;99.90
20446;DHT22;10382;49.140;9.234;2022-08-04T05:49:38;25.40;99.90
20446;DHT22;10382;49.140;9.234;2022-08-04T05:52:07;25.50;99.90
20446;DHT22;10382;49.140;9.234;2022-08-04T05:54:36;25.70;99.90
20446;DHT22;10382;49.140;9.234;2022-08-04T05:57:04;25.90;99.90
20446;DHT22;10382;49.140;9.234;2022-08-04T05:59:35;26.00;99.90
20446;DHT22;10382;49.140;9.234;2022-08-04T06:02:05;26.30;99.90
20446;DHT22;10382;49.140;9.234;2022-08-04T06:04:39;26.40;99.90
20446;DHT22;10382;49.140;9.234;2022-08-04T06:07:07;26.70;99.90
20446;DHT22;10382;49.140;9.234;2022-08-04T06:09:36;26.80;99.90
20446;DHT22;10382;49.140;9.234;2022-08-04T06:12:08;27.00;99.90
20446;DHT22;10382;49.140;9.234;2022-08-04T06:14:39;27.30;99.90
20446;DHT22;10382;49.140;9.234;2022-08-04T06:17:12;27.60;99.90
20446;DHT22;10382;49.140;9.234;2022-08-04T06:19:40;27.80;99.90
20446;DHT22;10382;49.140;9.234;2022-08-04T06:22:10;28.20;99.90
20446;DHT22;10382;49.140;9.234;2022-08-04T06:24:38;28.40;99.90
20446;DHT22;10382;49.140;9.234;2022-08-04T06:27:06;28.80;99.90
20446;DHT22;10382;49.140;9.234;2022-08-04T06:29:34;29.00;99.90
20446;DHT22;10382;49.140;9.234;2022-08-04T06:32:05;29.30;99.90
20446;DHT22;10382;49.140;9.234;2022-08-04T06:34:51;29.70;99.90
20446;DHT22;10382;49.140;9.234;2022-08-04T06:37:20;30.00;99.90
20446;DHT22;10382;49.140;9.234;2022-08-04T06:39:49;30.20;99.90
20446;DHT22;10382;49.140;9.234;2022-08-04T06:42:17;30.50;99.90
20446;DHT22;10382;49.140;9.234;2022-08-04T06:44:45;30.80;99.90
20446;DHT22;10382;49.140;9.234;2022-08-04T06:47:15;31.10;99.90
20446;DHT22;10382;49.140;9.234;2022-08-04T06:49:44;31.30;99.90
20446;DHT22;10382;49.140;9.234;2022-08-04T06:52:14;31.60;99.70
20446;DHT22;10382;49.140;9.234;2022-08-04T06:54:42;31.90;98.50
20446;DHT22;10382;49.140;9.234;2022-08-04T06:57:11;32.20;97.10
20446;DHT22;10382;49.140;9.234;2022-08-04T06:59:41;32.50;95.50
20446;DHT22;10382;49.140;9.234;2022-08-04T07:02:13;32.80;94.10
20446;DHT22;10382;49.140;9.234;2022-08-04T07:04:41;33.20;93.00
20446;DHT22;10382;49.140;9.234;2022-08-04T07:07:09;33.50;92.20
20446;DHT22;10382;49.140;9.234;2022-08-04T07:09:38;33.90;90.60
20446;DHT22;10382;49.140;9.234;2022-08-04T07:12:06;34.30;89.20
20446;DHT22;10382;49.140;9.234;2022-08-04T07:14:34;34.60;86.30
20446;DHT22;10382;49.140;9.234;2022-08-04T07:17:02;35.00;84.20
20446;DHT22;10382;49.140;9.234;2022-08-04T07:19:30;35.20;81.90
20446;DHT22;10382;49.140;9.234;2022-08-04T07:21:58;35.60;79.30
20446;DHT22;10382;49.140;9.234;2022-08-04T07:24:29;35.90;76.80
20446;DHT22;10382;49.140;9.234;2022-08-04T07:26:57;36.30;74.90
20446;DHT22;10382;49.140;9.234;2022-08-04T07:29:25;36.60;71.80
20446;DHT22;10382;49.140;9.234;2022-08-04T07:31:52;36.90;67.80
20446;DHT22;10382;49.140;9.234;2022-08-04T07:34:20;36.80;66.70
20446;DHT22;10382;49.140;9.234;2022-08-04T07:36:49;36.90;65.70
20446;DHT22;10382;49.140;9.234;2022-08-04T07:39:17;37.00;65.80
20446;DHT22;10382;49.140;9.234;2022-08-04T07:41:44;37.20;64.40
20446;DHT22;10382;49.140;9.234;2022-08-04T07:44:14;37.40;63.50
20446;DHT22;10382;49.140;9.234;2022-08-04T07:46:42;37.50;62.30
20446;DHT22;10382;49.140;9.234;2022-08-04T07:49:09;37.50;62.10
20446;DHT22;10382;49.140;9.234;2022-08-04T07:51:37;37.60;62.30
20446;DHT22;10382;49.140;9.234;2022-08-04T07:54:06;37.50;61.40
20446;DHT22;10382;49.140;9.234;2022-08-04T07:56:35;37.50;61.70
20446;DHT22;10382;49.140;9.234;2022-08-04T07:59:03;37.40;61.60
20446;DHT22;10382;49.140;9.234;2022-08-04T08:01:33;37.10;58.20
20446;DHT22;10382;49.140;9.234;2022-08-04T08:04:00;36.90;58.30
20446;DHT22;10382;49.140;9.234;2022-08-04T08:06:28;36.70;57.10
20446;DHT22;10382;49.140;9.234;2022-08-04T08:08:55;36.50;56.80
20446;DHT22;10382;49.140;9.234;2022-08-04T08:11:22;36.20;56.00
20446;DHT22;10382;49.140;9.234;2022-08-04T08:13:50;36.00;56.90
20446;DHT22;10382;49.140;9.234;2022-08-04T08:16:17;35.90;55.80
20446;DHT22;10382;49.140;9.234;2022-08-04T08:18:47;35.80;56.40
20446;DHT22;10382;49.140;9.234;2022-08-04T08:21:14;35.50;56.40
20446;DHT22;10382;49.140;9.234;2022-08-04T08:23:41;35.30;57.70
20446;DHT22;10382;49.140;9.234;2022-08-04T08:26:08;35.10;57.20
20446;DHT22;10382;49.140;9.234;2022-08-04T08:28:35;35.00;58.40
20446;DHT22;10382;49.140;9.234;2022-08-04T08:31:02;35.00;57.40
20446;DHT22;10382;49.140;9.234;2022-08-04T08:33:29;34.90;57.60
20446;DHT22;10382;49.140;9.234;2022-08-04T08:36:02;34.70;58.20
20446;DHT22;10382;49.140;9.234;2022-08-04T08:38:39;34.70;58.20
20446;DHT22;10382;49.140;9.234;2022-08-04T08:41:29;34.80;58.20
20446;DHT22;10382;49.140;9.234;2022-08-04T08:44:08;34.90;56.70
20446;DHT22;10382;49.140;9.234;2022-08-04T08:46:53;34.80;57.50
20446;DHT22;10382;49.140;9.234;2022-08-04T08:49:48;34.60;57.40
20446;DHT22;10382;49.140;9.234;2022-08-04T08:52:33;34.50;58.00
20446;DHT22;10382;49.140;9.234;2022-08-04T08:55:16;34.80;58.00
20446;DHT22;10382;49.140;9.234;2022-08-04T08:58:15;35.00;57.80
20446;DHT22;10382;49.140;9.234;2022-08-04T09:00:52;35.20;56.90
20446;DHT22;10382;49.140;9.234;2022-08-04T09:09:50;35.30;56.60
20446;DHT22;10382;49.140;9.234;2022-08-04T09:12:25;35.30;56.10
20446;DHT22;10382;49.140;9.234;2022-08-04T09:14:57;35.20;56.80
20446;DHT22;10382;49.140;9.234;2022-08-04T09:17:29;35.30;56.90
20446;DHT22;10382;49.140;9.234;2022-08-04T09:20:03;35.60;56.40
20446;DHT22;10382;49.140;9.234;2022-08-04T09:22:37;35.80;56.80
20446;DHT22;10382;49.140;9.234;2022-08-04T09:25:11;36.00;56.30
20446;DHT22;10382;49.140;9.234;2022-08-04T09:27:45;36.00;55.80
20446;DHT22;10382;49.140;9.234;2022-08-04T09:30:18;36.20;55.80
20446;DHT22;10382;49.140;9.234;2022-08-04T09:32:56;36.60;55.60
20446;DHT22;10382;49.140;9.234;2022-08-04T09:35:32;36.90;54.50
20446;DHT22;10382;49.140;9.234;2022-08-04T09:38:14;37.00;54.70
20446;DHT22;10382;49.140;9.234;2022-08-04T09:40:56;37.00;54.70
20446;DHT22;10382;49.140;9.234;2022-08-04T09:43:35;37.00;54.70
20446;DHT22;10382;49.140;9.234;2022-08-04T09:46:12;37.10;54.50
20446;DHT22;10382;49.140;9.234;2022-08-04T09:48:46;37.20;54.30
20446;DHT22;10382;49.140;9.234;2022-08-04T09:51:24;37.10;54.90
20446;DHT22;10382;49.140;9.234;2022-08-04T09:54:06;37.10;54.80
20446;DHT22;10382;49.140;9.234;2022-08-04T09:56:40;37.40;54.70
20446;DHT22;10382;49.140;9.234;2022-08-04T09:59:18;37.70;54.20
20446;DHT22;10382;49.140;9.234;2022-08-04T10:01:52;37.70;53.20
20446;DHT22;10382;49.140;9.234;2022-08-04T10:04:20;37.60;53.80
20446;DHT22;10382;49.140;9.234;2022-08-04T10:07:08;37.50;53.50
20446;DHT22;10382;49.140;9.234;2022-08-04T10:09:51;37.50;53.20
20446;DHT22;10382;49.140;9.234;2022-08-04T10:12:34;37.40;53.50
20446;DHT22;10382;49.140;9.234;2022-08-04T10:15:09;37.50;53.50
20446;DHT22;10382;49.140;9.234;2022-08-04T10:18:00;37.40;53.40
20446;DHT22;10382;49.140;9.234;2022-08-04T10:20:48;37.50;53.20
20446;DHT22;10382;49.140;9.234;2022-08-04T10:23:26;37.70;53.40
20446;DHT22;10382;49.140;9.234;2022-08-04T10:26:05;37.90;53.40
20446;DHT22;10382;49.140;9.234;2022-08-04T10:28:43;38.00;53.10
20446;DHT22;10382;49.140;9.234;2022-08-04T10:31:16;38.20;51.70
20446;DHT22;10382;49.140;9.234;2022-08-04T10:33:49;38.30;51.80
20446;DHT22;10382;49.140;9.234;2022-08-04T10:36:21;38.30;51.60
20446;DHT22;10382;49.140;9.234;2022-08-04T10:39:06;38.50;51.00
20446;DHT22;10382;49.140;9.234;2022-08-04T10:41:38;38.80;51.10
20446;DHT22;10382;49.140;9.234;2022-08-04T10:44:17;39.00;50.20
20446;DHT22;10382;49.140;9.234;2022-08-04T10:46:51;39.10;50.20
20446;DHT22;10382;49.140;9.234;2022-08-04T10:49:32;39.40;50.10
20446;DHT22;10382;49.140;9.234;2022-08-04T10:52:04;39.60;49.30
20446;DHT22;10382;49.140;9.234;2022-08-04T10:54:38;39.50;48.70
20446;DHT22;10382;49.140;9.234;2022-08-04T10:57:13;39.40;48.20
20446;DHT22;10382;49.140;9.234;2022-08-04T10:59:49;39.30;48.90
20446;DHT22;10382;49.140;9.234;2022-08-04T11:02:26;39.30;48.70
20446;DHT22;10382;49.140;9.234;2022-08-04T11:05:04;39.10;49.00
20446;DHT22;10382;49.140;9.234;2022-08-04T11:07:33;39.20;49.20
20446;DHT22;10382;49.140;9.234;2022-08-04T11:10:04;39.30;49.20
20446;DHT22;10382;49.140;9.234;2022-08-04T11:12:33;39.50;48.70
20446;DHT22;10382;49.140;9.234;2022-08-04T11:15:05;39.70;47.90
20446;DHT22;10382;49.140;9.234;2022-08-04T11:17:37;39.60;47.40
20446;DHT22;10382;49.140;9.234;2022-08-04T11:20:12;39.40;47.90
20446;DHT22;10382;49.140;9.234;2022-08-04T11:22:46;39.40;48.40
20446;DHT22;10382;49.140;9.234;2022-08-04T11:25:21;39.50;47.40
20446;DHT22;10382;49.140;9.234;2022-08-04T11:27:57;39.70;47.90
20446;DHT22;10382;49.140;9.234;2022-08-04T11:30:31;40.10;46.70
20446;DHT22;10382;49.140;9.234;2022-08-04T11:33:05;40.10;46.40
20446;DHT22;10382;49.140;9.234;2022-08-04T11:35:41;40.00;46.40
20446;DHT22;10382;49.140;9.234;2022-08-04T11:38:16;40.00;46.50
20446;DHT22;10382;49.140;9.234;2022-08-04T11:40:49;40.30;46.30
20446;DHT22;10382;49.140;9.234;2022-08-04T11:43:23;40.60;45.50
20446;DHT22;10382;49.140;9.234;2022-08-04T11:45:56;40.80;45.30
20446;DHT22;10382;49.140;9.234;2022-08-04T11:48:29;41.00;45.80
20446;DHT22;10382;49.140;9.234;2022-08-04T11:50:59;41.10;45.60
20446;DHT22;10382;49.140;9.234;2022-08-04T11:53:30;41.20;44.90
20446;DHT22;10382;49.140;9.234;2022-08-04T11:56:00;41.10;45.30
20446;DHT22;10382;49.140;9.234;2022-08-04T11:58:28;41.10;45.40
20446;DHT22;10382;49.140;9.234;2022-08-04T12:01:05;41.20;45.00
20446;DHT22;10382;49.140;9.234;2022-08-04T12:03:38;41.40;44.20
20446;DHT22;10382;49.140;9.234;2022-08-04T12:06:16;41.40;43.80
20446;DHT22;10382;49.140;9.234;2022-08-04T12:09:01;41.50;43.60
20446;DHT22;10382;49.140;9.234;2022-08-04T12:11:39;41.70;44.00
20446;DHT22;10382;49.140;9.234;2022-08-04T12:14:19;42.00;43.10
20446;DHT22;10382;49.140;9.234;2022-08-04T12:16:57;42.30;43.10
20446;DHT22;10382;49.140;9.234;2022-08-04T12:19:29;42.50;43.00
20446;DHT22;10382;49.140;9.234;2022-08-04T12:22:00;42.60;42.10
20446;DHT22;10382;49.140;9.234;2022-08-04T12:24:33;42.60;42.30
20446;DHT22;10382;49.140;9.234;2022-08-04T12:27:06;42.70;42.20
20446;DHT22;10382;49.140;9.234;2022-08-04T12:29:36;42.70;41.70
20446;DHT22;10382;49.140;9.234;2022-08-04T12:32:15;42.60;41.20
20446;DHT22;10382;49.140;9.234;2022-08-04T12:34:48;42.60;41.90
20446;DHT22;10382;49.140;9.234;2022-08-04T12:37:25;42.70;41.40
20446;DHT22;10382;49.140;9.234;2022-08-04T12:39:53;42.70;41.50
20446;DHT22;10382;49.140;9.234;2022-08-04T12:42:28;42.90;41.50
20446;DHT22;10382;49.140;9.234;2022-08-04T12:45:03;42.90;41.10
20446;DHT22;10382;49.140;9.234;2022-08-04T12:47:35;42.90;41.20
20446;DHT22;10382;49.140;9.234;2022-08-04T12:50:04;42.80;41.50
20446;DHT22;10382;49.140;9.234;2022-08-04T12:52:40;42.90;41.10
20446;DHT22;10382;49.140;9.234;2022-08-04T12:55:08;42.80;41.30
20446;DHT22;10382;49.140;9.234;2022-08-04T12:57:36;42.80;41.40
20446;DHT22;10382;49.140;9.234;2022-08-04T13:00:04;42.80;41.00
20446;DHT22;10382;49.140;9.234;2022-08-04T13:02:36;42.90;41.60
20446;DHT22;10382;49.140;9.234;2022-08-04T13:05:06;42.80;41.00
20446;DHT22;10382;49.140;9.234;2022-08-04T13:07:36;42.40;41.10
20446;DHT22;10382;49.140;9.234;2022-08-04T13:10:10;42.20;41.50
20446;DHT22;10382;49.140;9.234;2022-08-04T13:12:38;42.20;41.40
20446;DHT22;10382;49.140;9.234;2022-08-04T13:15:10;42.00;41.00
20446;DHT22;10382;49.140;9.234;2022-08-04T13:17:48;41.80;41.40
20446;DHT22;10382;49.140;9.234;2022-08-04T13:20:19;41.90;42.50
20446;DHT22;10382;49.140;9.234;2022-08-04T13:22:49;42.20;41.70
20446;DHT22;10382;49.140;9.234;2022-08-04T13:25:17;42.30;41.00
20446;DHT22;10382;49.140;9.234;2022-08-04T13:27:45;42.00;41.60
20446;DHT22;10382;49.140;9.234;2022-08-04T13:30:17;41.80;41.90
20446;DHT22;10382;49.140;9.234;2022-08-04T13:32:46;41.70;42.00
20446;DHT22;10382;49.140;9.234;2022-08-04T13:35:13;41.70;41.60
20446;DHT22;10382;49.140;9.234;2022-08-04T13:37:41;41.80;41.20
20446;DHT22;10382;49.140;9.234;2022-08-04T13:40:11;41.70;41.30
20446;DHT22;10382;49.140;9.234;2022-08-04T13:42:40;41.60;41.60
20446;DHT22;10382;49.140;9.234;2022-08-04T13:45:12;41.60;41.50
20446;DHT22;10382;49.140;9.234;2022-08-04T13:47:41;41.70;41.60
20446;DHT22;10382;49.140;9.234;2022-08-04T13:50:20;41.80;41.60
20446;DHT22;10382;49.140;9.234;2022-08-04T13:52:51;42.00;41.40
20446;DHT22;10382;49.140;9.234;2022-08-04T13:55:23;42.20;41.50
20446;DHT22;10382;49.140;9.234;2022-08-04T13:57:55;42.30;41.10
20446;DHT22;10382;49.140;9.234;2022-08-04T14:00:24;42.30;40.80
20446;DHT22;10382;49.140;9.234;2022-08-04T14:02:58;42.30;40.80
20446;DHT22;10382;49.140;9.234;2022-08-04T14:05:28;42.30;40.70
20446;DHT22;10382;49.140;9.234;2022-08-04T14:07:59;42.50;40.60
20446;DHT22;10382;49.140;9.234;2022-08-04T14:10:26;42.50;41.00
20446;DHT22;10382;49.140;9.234;2022-08-04T14:12:53;42.60;40.60
20446;DHT22;10382;49.140;9.234;2022-08-04T14:15:36;42.50;40.40
20446;DHT22;10382;49.140;9.234;2022-08-04T14:18:17;42.50;40.50
20446;DHT22;10382;49.140;9.234;2022-08-04T14:21:03;42.60;40.30
20446;DHT22;10382;49.140;9.234;2022-08-04T14:23:39;42.50;40.30
20446;DHT22;10382;49.140;9.234;2022-08-04T14:26:21;42.20;40.40
20446;DHT22;10382;49.140;9.234;2022-08-04T14:28:48;41.70;40.60
20446;DHT22;10382;49.140;9.234;2022-08-04T14:31:17;41.10;41.70
20446;DHT22;10382;49.140;9.234;2022-08-04T14:33:45;40.50;42.20
20446;DHT22;10382;49.140;9.234;2022-08-04T14:36:15;40.20;42.30
20446;DHT22;10382;49.140;9.234;2022-08-04T14:38:51;40.00;42.30
20446;DHT22;10382;49.140;9.234;2022-08-04T14:41:22;40.00;42.70
20446;DHT22;10382;49.140;9.234;2022-08-04T14:43:52;40.10;42.40
20446;DHT22;10382;49.140;9.234;2022-08-04T14:46:19;40.50;41.90
20446;DHT22;10382;49.140;9.234;2022-08-04T14:49:01;40.80;41.90
20446;DHT22;10382;49.140;9.234;2022-08-04T14:51:35;41.00;41.60
20446;DHT22;10382;49.140;9.234;2022-08-04T14:54:03;41.00;41.20
20446;DHT22;10382;49.140;9.234;2022-08-04T14:56:30;40.80;41.20
20446;DHT22;10382;49.140;9.234;2022-08-04T14:59:00;40.70;41.00
20446;DHT22;10382;49.140;9.234;2022-08-04T15:01:27;40.50;41.50
20446;DHT22;10382;49.140;9.234;2022-08-04T15:03:55;40.30;41.40
20446;DHT22;10382;49.140;9.234;2022-08-04T15:06:24;40.30;41.30
20446;DHT22;10382;49.140;9.234;2022-08-04T15:08:56;40.40;41.70
20446;DHT22;10382;49.140;9.234;2022-08-04T15:11:24;40.30;42.00
20446;DHT22;10382;49.140;9.234;2022-08-04T15:13:51;40.50;42.20
20446;DHT22;10382;49.140;9.234;2022-08-04T15:16:19;40.30;41.40
20446;DHT22;10382;49.140;9.234;2022-08-04T15:18:46;40.40;41.40
20446;DHT22;10382;49.140;9.234;2022-08-04T15:21:14;40.90;41.70
20446;DHT22;10382;49.140;9.234;2022-08-04T15:23:41;41.50;40.50
20446;DHT22;10382;49.140;9.234;2022-08-04T15:26:14;41.90;40.50
20446;DHT22;10382;49.140;9.234;2022-08-04T15:28:46;42.30;40.70
20446;DHT22;10382;49.140;9.234;2022-08-04T15:31:15;43.00;39.80
20446;DHT22;10382;49.140;9.234;2022-08-04T15:33:43;43.50;39.10
20446;DHT22;10382;49.140;9.234;2022-08-04T15:36:14;44.00;38.90
20446;DHT22;10382;49.140;9.234;2022-08-04T15:38:48;44.30;38.60
20446;DHT22;10382;49.140;9.234;2022-08-04T15:41:25;44.40;38.60
20446;DHT22;10382;49.140;9.234;2022-08-04T15:44:16;44.00;38.50
20446;DHT22;10382;49.140;9.234;2022-08-04T15:47:11;43.80;38.20
20446;DHT22;10382;49.140;9.234;2022-08-04T15:49:39;43.90;38.40
20446;DHT22;10382;49.140;9.234;2022-08-04T15:52:07;44.00;38.50
20446;DHT22;10382;49.140;9.234;2022-08-04T15:54:35;44.10;38.70
20446;DHT22;10382;49.140;9.234;2022-08-04T15:57:05;44.30;38.30
20446;DHT22;10382;49.140;9.234;2022-08-04T15:59:57;44.70;38.20
20446;DHT22;10382;49.140;9.234;2022-08-04T16:02:39;44.90;37.40
20446;DHT22;10382;49.140;9.234;2022-08-04T16:05:32;44.90;37.30
20446;DHT22;10382;49.140;9.234;2022-08-04T16:08:08;44.20;37.70
20446;DHT22;10382;49.140;9.234;2022-08-04T16:10:37;43.90;38.20
20446;DHT22;10382;49.140;9.234;2022-08-04T16:13:07;43.70;38.80
20446;DHT22;10382;49.140;9.234;2022-08-04T16:15:38;43.20;38.40
20446;DHT22;10382;49.140;9.234;2022-08-04T16:18:06;42.50;39.10
20446;DHT22;10382;49.140;9.234;2022-08-04T16:20:34;42.00;39.20
20446;DHT22;10382;49.140;9.234;2022-08-04T16:23:11;41.50;39.70
20446;DHT22;10382;49.140;9.234;2022-08-04T16:25:42;41.20;39.90
20446;DHT22;10382;49.140;9.234;2022-08-04T16:28:38;40.90;40.50
20446;DHT22;10382;49.140;9.234;2022-08-04T16:31:08;40.50;40.80
20446;DHT22;10382;49.140;9.234;2022-08-04T16:33:35;40.30;40.60
20446;DHT22;10382;49.140;9.234;2022-08-04T16:36:06;40.10;40.70
20446;DHT22;10382;49.140;9.234;2022-08-04T16:38:59;39.90;40.80
20446;DHT22;10382;49.140;9.234;2022-08-04T16:41:37;39.70;41.60
20446;DHT22;10382;49.140;9.234;2022-08-04T16:44:31;39.60;41.80
20446;DHT22;10382;49.140;9.234;2022-08-04T16:47:02;39.60;42.00
20446;DHT22;10382;49.140;9.234;2022-08-04T16:49:30;39.40;41.90
20446;DHT22;10382;49.140;9.234;2022-08-04T16:52:01;39.40;42.00
20446;DHT22;10382;49.140;9.234;2022-08-04T16:54:28;39.40;42.30
20446;DHT22;10382;49.140;9.234;2022-08-04T16:56:56;39.30;42.30